createdAt,value
2018-12-29T00:01:07.673Z,22.30
2018-12-29T00:06:14.013Z,22.30
2018-12-29T00:11:20.543Z,22.30
2018-12-29T00:16:27.303Z,22.30
2018-12-29T00:21:33.726Z,22.30
2018-12-29T00:26:39.522Z,22.20
2018-12-29T00:31:45.103Z,22.30
2018-12-29T00:36:51.364Z,22.20
2018-12-29T00:41:57.563Z,22.20
2018-12-29T00:47:03.785Z,22.20
2018-12-29T00:52:09.622Z,22.20
2018-12-29T00:57:15.866Z,22.20
2018-12-29T01:02:21.895Z,22.10
2018-12-29T01:07:28.223Z,22.10
2018-12-29T01:12:34.423Z,22.10
2018-12-29T01:17:40.134Z,22.10
2018-12-29T01:22:46.272Z,22.00
2018-12-29T01:27:52.065Z,22.00
2018-12-29T01:32:58.093Z,22.00
2018-12-29T01:38:04.443Z,22.00
2018-12-29T01:43:10.884Z,22.00
2018-12-29T01:48:17.925Z,22.00
2018-12-29T01:53:23.565Z,21.90
2018-12-29T01:58:29.574Z,21.90
2018-12-29T02:03:35.765Z,21.90
2018-12-29T02:08:41.603Z,21.90
2018-12-29T02:13:47.805Z,21.80
2018-12-29T02:18:54.024Z,21.80
2018-12-29T02:24:00.224Z,21.80
2018-12-29T02:29:05.963Z,21.80
2018-12-29T02:34:12.163Z,21.80
2018-12-29T02:39:18.320Z,21.80
2018-12-29T02:44:24.485Z,21.70
2018-12-29T02:49:30.765Z,21.70
2018-12-29T02:54:36.323Z,21.70
2018-12-29T02:59:42.184Z,21.70
2018-12-29T03:04:48.684Z,21.70
2018-12-29T03:09:54.713Z,21.60
2018-12-29T03:15:00.846Z,21.60
2018-12-29T03:20:07.195Z,21.60
2018-12-29T03:25:13.334Z,21.60
2018-12-29T03:30:19.335Z,21.60
2018-12-29T03:35:25.474Z,21.50
2018-12-29T03:40:31.280Z,21.50
2018-12-29T03:45:37.405Z,21.60
2018-12-29T03:50:43.349Z,21.50
2018-12-29T03:55:49.213Z,21.50
2018-12-29T04:00:54.933Z,21.50
2018-12-29T04:06:00.957Z,21.50
2018-12-29T04:11:07.256Z,21.50
2018-12-29T04:16:13.314Z,21.50
2018-12-29T04:21:19.189Z,21.50
2018-12-29T04:26:25.134Z,21.40
2018-12-29T04:31:31.295Z,21.40
2018-12-29T04:36:37.007Z,21.40
2018-12-29T04:41:43.046Z,21.40
2018-12-29T04:46:48.963Z,21.40
2018-12-29T04:51:54.434Z,21.40
2018-12-29T04:57:00.793Z,21.30
2018-12-29T05:02:06.905Z,21.30
2018-12-29T05:07:13.184Z,21.30
2018-12-29T05:12:19.275Z,21.30
2018-12-29T05:17:25.264Z,21.30
2018-12-29T05:22:30.785Z,21.30
2018-12-29T05:27:36.954Z,21.30
2018-12-29T05:32:43.324Z,21.30
2018-12-29T05:37:49.194Z,21.30
2018-12-29T05:42:54.835Z,21.20
2018-12-29T05:48:00.834Z,21.20
2018-12-29T05:53:06.775Z,21.20
2018-12-29T05:58:12.444Z,21.20
2018-12-29T06:03:18.757Z,21.20
2018-12-29T06:08:24.604Z,21.20
2018-12-29T06:13:30.564Z,21.20
2018-12-29T06:18:36.644Z,21.20
2018-12-29T06:23:42.818Z,21.10
2018-12-29T06:28:49.264Z,21.20
2018-12-29T06:33:55.534Z,21.10
2018-12-29T06:39:01.174Z,21.10
2018-12-29T06:44:06.964Z,21.10
2018-12-29T06:49:12.906Z,21.10
2018-12-29T06:54:19.176Z,21.10
2018-12-29T06:59:25.814Z,21.10
2018-12-29T07:04:32.175Z,21.10
2018-12-29T07:09:38.535Z,21.10
2018-12-29T07:14:44.865Z,21.00
2018-12-29T07:19:51.495Z,21.10
2018-12-29T07:24:57.195Z,21.00
2018-12-29T07:30:02.985Z,21.00
2018-12-29T07:35:09.184Z,21.10
2018-12-29T07:40:15.506Z,21.10
2018-12-29T07:45:21.194Z,21.30
2018-12-29T07:50:27.144Z,21.50
2018-12-29T07:55:32.702Z,21.60
2018-12-29T08:00:38.754Z,21.70
2018-12-29T08:05:44.386Z,21.80
2018-12-29T08:10:50.183Z,21.90
2018-12-29T08:15:56.333Z,22.00
2018-12-29T08:21:02.783Z,21.90
2018-12-29T08:26:08.543Z,21.90
2018-12-29T08:31:14.404Z,21.80
2018-12-29T08:36:22.483Z,21.70
2018-12-29T08:41:28.364Z,21.70
2018-12-29T08:46:34.743Z,21.60
2018-12-29T08:51:41.263Z,21.60
2018-12-29T08:56:48.855Z,21.50
2018-12-29T09:01:54.644Z,21.50
2018-12-29T09:07:00.902Z,21.50
2018-12-29T09:12:07.114Z,21.50
2018-12-29T09:17:13.565Z,21.50
2018-12-29T09:22:19.937Z,21.40
2018-12-29T09:27:26.104Z,21.40
2018-12-29T09:32:32.064Z,21.50
2018-12-29T09:37:38.234Z,21.50
2018-12-29T09:42:43.904Z,21.50
2018-12-29T09:47:50.284Z,21.50
2018-12-29T09:52:56.586Z,21.50
2018-12-29T09:58:02.703Z,21.50
2018-12-29T10:03:09.474Z,21.50
2018-12-29T10:08:15.655Z,21.50
2018-12-29T10:13:21.784Z,21.50
2018-12-29T10:18:27.664Z,21.50
2018-12-29T10:23:34.273Z,21.50
2018-12-29T10:28:40.388Z,21.50
2018-12-29T10:33:46.696Z,21.50
2018-12-29T10:38:52.595Z,21.50
2018-12-29T10:44:00.044Z,21.60
2018-12-29T10:49:07.284Z,21.60
2018-12-29T10:54:12.894Z,21.70
2018-12-29T10:59:19.554Z,21.70
2018-12-29T11:04:25.061Z,21.80
2018-12-29T11:09:31.538Z,21.80
2018-12-29T11:14:37.823Z,21.50
2018-12-29T11:19:45.054Z,21.30
2018-12-29T11:24:51.273Z,21.40
2018-12-29T11:29:58.177Z,21.50
2018-12-29T11:35:04.152Z,21.50
2018-12-29T11:40:10.414Z,21.30
2018-12-29T11:45:16.713Z,21.20
2018-12-29T11:50:22.524Z,21.30
2018-12-29T11:55:28.693Z,21.50
2018-12-29T12:00:34.473Z,21.60
2018-12-29T12:05:40.314Z,21.70
2018-12-29T12:10:47.003Z,21.70
2018-12-29T12:15:53.273Z,21.80
2018-12-29T12:20:59.574Z,21.80
2018-12-29T12:26:05.784Z,21.90
2018-12-29T12:31:11.664Z,21.90
2018-12-29T12:36:18.554Z,22.00
2018-12-29T12:41:23.966Z,22.00
2018-12-29T12:46:30.282Z,22.00
2018-12-29T12:51:36.623Z,22.00
2018-12-29T12:56:43.453Z,22.00
2018-12-29T13:01:49.803Z,22.00
2018-12-29T13:06:55.904Z,22.10
2018-12-29T13:12:02.105Z,22.10
2018-12-29T13:17:08.173Z,22.10
2018-12-29T13:22:15.123Z,22.10
2018-12-29T13:27:21.224Z,22.20
2018-12-29T13:32:28.185Z,22.20
2018-12-29T13:37:34.674Z,22.30
2018-12-29T13:42:40.982Z,22.30
2018-12-29T13:47:47.272Z,22.30
2018-12-29T13:52:53.211Z,22.40
2018-12-29T13:58:18.167Z,22.40
2018-12-29T14:03:24.063Z,22.40
2018-12-29T14:08:29.722Z,22.50
2018-12-29T14:13:36.304Z,22.50
2018-12-29T14:18:42.162Z,22.50
2018-12-29T14:23:48.621Z,22.50
2018-12-29T14:28:55.342Z,22.60
2018-12-29T14:34:01.772Z,22.60
2018-12-29T14:39:08.363Z,22.60
2018-12-29T14:44:14.102Z,22.60
2018-12-29T14:49:22.373Z,22.60
2018-12-29T14:54:29.043Z,22.60
2018-12-29T14:59:35.512Z,22.60
2018-12-29T15:04:41.702Z,22.60
2018-12-29T15:09:48.132Z,22.60
2018-12-29T15:14:54.084Z,22.60
2018-12-29T15:20:02.123Z,22.60
2018-12-29T15:25:08.364Z,22.60
2018-12-29T15:30:14.623Z,22.60
2018-12-29T15:35:21.085Z,22.60
2018-12-29T15:40:27.527Z,22.60
2018-12-29T15:45:33.997Z,22.60
2018-12-29T15:50:40.232Z,22.60
2018-12-29T15:55:47.863Z,22.70
2018-12-29T16:00:53.863Z,22.60
2018-12-29T16:05:59.513Z,22.60
2018-12-29T16:11:06.331Z,22.70
2018-12-29T16:16:12.534Z,22.60
2018-12-29T16:21:19.595Z,22.60
2018-12-29T16:26:27.276Z,22.60
2018-12-29T16:31:33.893Z,22.70
2018-12-29T16:36:40.324Z,22.70
2018-12-29T16:41:46.593Z,22.70
2018-12-29T16:46:52.627Z,22.80
2018-12-29T16:51:58.814Z,22.80
2018-12-29T16:57:04.733Z,22.80
2018-12-29T17:02:11.403Z,22.80
2018-12-29T17:23:33.493Z,22.80
2018-12-29T17:28:39.973Z,22.80
2018-12-29T17:33:47.005Z,22.80
2018-12-29T17:38:53.504Z,22.80
2018-12-29T17:43:59.864Z,22.80
2018-12-29T17:49:06.444Z,22.90
2018-12-29T17:54:12.994Z,22.90
2018-12-29T17:59:19.143Z,22.90
2018-12-29T18:04:25.352Z,22.90
2018-12-29T18:09:31.533Z,22.90
2018-12-29T18:14:37.793Z,22.90
